createdAt,value
2022-10-30T00:00:49.656Z,100528.34
2022-10-30T00:04:54.064Z,100516.91
2022-10-30T00:08:57.131Z,100522.16
2022-10-30T00:13:00.166Z,100523.03
2022-10-30T00:17:03.191Z,100514.25
2022-10-30T00:21:09.806Z,100516.88
2022-10-30T00:25:13.105Z,100508.97
2022-10-30T00:29:16.453Z,100508.06
2022-10-30T00:33:19.497Z,100507.19
2022-10-30T00:37:25.402Z,100506.28
2022-10-30T00:41:28.471Z,100500.13
2022-10-30T00:45:31.737Z,100501.88
2022-10-30T00:49:38.303Z,100504.53
2022-10-30T00:53:44.217Z,100491.31
2022-10-30T00:57:48.513Z,100489.53
2022-10-30T01:01:52.820Z,100487.75
2022-10-30T01:05:59.851Z,100481.59
2022-10-30T01:10:04.981Z,100486.00
2022-10-30T01:14:11.419Z,100478.94
2022-10-30T01:18:33.432Z,100473.63
2022-10-30T01:22:51.403Z,100469.22
2022-10-30T01:27:05.619Z,100471.84
2022-10-30T01:31:22.800Z,100468.31
2022-10-30T01:35:33.552Z,100469.22
2022-10-30T01:39:40.772Z,100470.09
2022-10-30T01:43:49.223Z,100468.34
2022-10-30T01:48:11.866Z,100465.72
2022-10-30T01:52:33.237Z,100470.13
2022-10-30T01:56:41.106Z,100466.59
2022-10-30T02:00:48.765Z,100468.34
2022-10-30T02:04:52.705Z,100465.69
2022-10-30T02:08:57.061Z,100463.06
2022-10-30T02:13:00.238Z,100451.59
2022-10-30T02:17:07.762Z,100443.69
2022-10-30T02:21:12.774Z,100437.53
2022-10-30T02:25:16.396Z,100451.59
2022-10-30T02:29:20.808Z,100441.94
2022-10-30T02:33:24.385Z,100448.06
2022-10-30T02:37:29.055Z,100442.75
2022-10-30T02:41:32.073Z,100445.38
2022-10-30T02:45:35.117Z,100437.47
2022-10-30T02:49:38.708Z,100436.59
2022-10-30T02:53:43.209Z,100446.28
2022-10-30T02:57:47.058Z,100442.75
2022-10-30T03:01:50.210Z,100441.88
2022-10-30T03:05:53.332Z,100437.47
2022-10-30T03:09:57.722Z,100442.75
2022-10-30T03:14:00.775Z,100447.16
2022-10-30T03:18:03.795Z,100443.59
2022-10-30T03:22:06.801Z,100452.44
2022-10-30T03:26:11.810Z,100440.06
2022-10-30T03:30:35.069Z,100445.38
2022-10-30T03:34:39.910Z,100440.97
2022-10-30T03:38:44.269Z,100445.41
2022-10-30T03:42:52.614Z,100455.09
2022-10-30T03:46:55.683Z,100455.91
2022-10-30T03:51:03.705Z,100455.09
2022-10-30T03:55:08.142Z,100454.16
2022-10-30T03:59:15.766Z,100458.53
2022-10-30T04:03:26.284Z,100464.66
2022-10-30T04:07:30.136Z,100470.84
2022-10-30T04:11:33.217Z,100466.41
2022-10-30T04:15:38.446Z,100462.91
2022-10-30T04:19:41.489Z,100456.69
2022-10-30T04:23:46.054Z,100457.56
2022-10-30T04:27:49.587Z,100462.00
2022-10-30T04:31:55.401Z,100466.41
2022-10-30T04:35:59.190Z,100457.63
2022-10-30T04:40:02.399Z,100464.66
2022-10-30T04:44:12.673Z,100461.13
2022-10-30T04:48:19.597Z,100463.78
2022-10-30T04:52:23.964Z,100457.59
2022-10-30T04:56:27.190Z,100458.47
2022-10-30T05:00:32.985Z,100445.28
2022-10-30T05:04:47.222Z,100455.88
2022-10-30T05:08:50.544Z,100447.06
2022-10-30T05:13:07.143Z,100454.09
2022-10-30T05:17:10.346Z,100457.63
2022-10-30T05:21:15.488Z,100445.31
2022-10-30T05:25:18.501Z,100440.91
2022-10-30T05:29:21.560Z,100448.84
2022-10-30T05:33:24.592Z,100456.75
2022-10-30T05:37:29.058Z,100455.91
2022-10-30T05:41:32.438Z,100455.00
2022-10-30T05:45:35.481Z,100458.50
2022-10-30T05:49:39.757Z,100475.25
2022-10-30T05:53:52.584Z,100478.78
2022-10-30T05:58:02.842Z,100485.81
2022-10-30T06:02:07.381Z,100497.25
2022-10-30T06:06:11.225Z,100491.94
2022-10-30T06:10:16.091Z,100496.34
2022-10-30T06:14:32.755Z,100491.00
2022-10-30T06:18:35.965Z,100498.09
2022-10-30T06:22:55.658Z,100501.59
2022-10-30T06:27:02.858Z,100508.66
2022-10-30T06:31:06.361Z,100510.44
2022-10-30T06:35:10.502Z,100506.88
2022-10-30T06:39:13.880Z,100496.28
2022-10-30T06:43:47.279Z,100485.72
2022-10-30T06:47:58.202Z,100496.31
2022-10-30T06:52:02.492Z,100499.84
2022-10-30T06:56:06.771Z,100485.78
2022-10-30T07:00:40.234Z,100477.00
2022-10-30T07:05:09.746Z,100484.00
2022-10-30T07:09:13.146Z,100477.81
2022-10-30T07:13:16.804Z,100474.28
2022-10-30T07:17:26.689Z,100485.72
2022-10-30T07:21:34.352Z,100501.63
2022-10-30T07:25:41.240Z,100503.41
2022-10-30T07:29:52.212Z,100507.88
2022-10-30T07:33:59.483Z,100509.63
2022-10-30T07:38:21.038Z,100513.16
2022-10-30T07:42:31.313Z,100522.78
2022-10-30T07:46:49.029Z,100518.44
2022-10-30T07:51:22.483Z,100502.56
2022-10-30T07:55:25.968Z,100506.09
2022-10-30T08:04:15.463Z,100509.66
2022-10-30T08:08:20.174Z,100501.75
2022-10-30T08:12:29.981Z,100506.13
2022-10-30T08:16:33.071Z,100503.53
2022-10-30T08:20:36.181Z,100502.66
2022-10-30T08:24:40.697Z,100495.63
2022-10-30T08:28:43.784Z,100499.16
2022-10-30T08:32:48.081Z,100487.69
2022-10-30T08:37:19.926Z,100491.22
2022-10-30T08:41:24.983Z,100486.84
2022-10-30T08:45:31.156Z,100482.44
2022-10-30T08:49:43.294Z,100486.84
2022-10-30T08:53:49.509Z,100478.94
2022-10-30T08:57:54.561Z,100481.59
2022-10-30T09:01:58.281Z,100483.38
2022-10-30T09:06:20.076Z,100486.03
2022-10-30T09:10:49.121Z,100494.00
2022-10-30T09:14:53.704Z,100503.69
2022-10-30T09:18:56.769Z,100496.63
2022-10-30T09:23:00.504Z,100493.97
2022-10-30T09:27:04.198Z,100492.22
2022-10-30T09:31:13.993Z,100493.06
2022-10-30T09:35:17.339Z,100493.09
2022-10-30T09:39:20.977Z,100486.06
2022-10-30T09:43:39.215Z,100484.28
2022-10-30T09:47:53.496Z,100483.41
2022-10-30T09:52:09.510Z,100488.72
2022-10-30T09:56:25.007Z,100487.84
2022-10-30T10:00:34.637Z,100486.09
2022-10-30T10:04:49.737Z,100486.09
2022-10-30T10:09:18.474Z,100490.47
2022-10-30T10:14:00.213Z,100489.59
2022-10-30T10:18:06.169Z,100485.19
2022-10-30T10:22:21.546Z,100484.28
2022-10-30T10:26:45.403Z,100482.56
2022-10-30T10:30:56.653Z,100479.91
2022-10-30T10:35:20.451Z,100480.78
2022-10-30T10:39:41.084Z,100477.25
2022-10-30T10:44:00.098Z,100473.72
2022-10-30T10:48:38.819Z,100473.75
2022-10-30T10:52:48.858Z,100465.81
2022-10-30T10:56:53.712Z,100461.38
2022-10-30T11:00:58.902Z,100457.84
2022-10-30T11:05:07.651Z,100448.19
2022-10-30T11:09:17.377Z,100450.81
2022-10-30T11:13:21.746Z,100457.00
2022-10-30T11:17:27.886Z,100444.66
2022-10-30T11:21:35.777Z,100445.53
2022-10-30T11:25:38.930Z,100433.19
2022-10-30T11:29:50.571Z,100436.72
2022-10-30T11:33:53.620Z,100435.84
2022-10-30T11:38:20.014Z,100431.44
2022-10-30T11:42:23.097Z,100426.13
2022-10-30T11:46:27.526Z,100428.78
2022-10-30T11:50:32.852Z,100428.78
2022-10-30T11:54:40.344Z,100433.19
2022-10-30T11:58:47.254Z,100434.09
2022-10-30T12:02:53.929Z,100434.06
2022-10-30T12:07:10.625Z,100440.22
2022-10-30T12:11:13.819Z,100432.31
2022-10-30T12:15:22.607Z,100437.59
2022-10-30T12:19:27.283Z,100439.38
2022-10-30T12:23:30.856Z,100435.84
2022-10-30T12:27:39.019Z,100420.84
2022-10-30T12:31:47.903Z,100420.84
2022-10-30T12:35:57.243Z,100419.09
2022-10-30T12:40:02.856Z,100418.19
2022-10-30T12:44:14.762Z,100417.28
2022-10-30T12:48:27.677Z,100417.31
2022-10-30T12:52:37.509Z,100414.66
2022-10-30T12:56:45.040Z,100403.22
2022-10-30T13:00:55.929Z,100397.88
2022-10-30T13:05:03.711Z,100404.06
2022-10-30T13:09:16.424Z,100392.59
2022-10-30T13:13:23.112Z,100388.22
2022-10-30T13:17:26.177Z,100389.97
2022-10-30T13:21:40.347Z,100389.06
2022-10-30T13:26:00.425Z,100386.44
2022-10-30T13:30:07.083Z,100383.81
2022-10-30T13:34:27.371Z,100382.00
2022-10-30T13:38:41.474Z,100389.97
2022-10-30T13:42:58.045Z,100387.31
2022-10-30T13:47:13.997Z,100389.94
2022-10-30T13:51:35.163Z,100378.50
2022-10-30T13:55:41.298Z,100381.16
2022-10-30T13:59:58.021Z,100385.53
2022-10-30T14:04:07.074Z,100386.41
2022-10-30T14:08:19.804Z,100383.81
2022-10-30T14:12:45.496Z,100378.50
2022-10-30T14:17:09.982Z,100378.50
2022-10-30T14:21:52.803Z,100385.53
2022-10-30T14:26:21.947Z,100379.38
2022-10-30T14:30:29.018Z,100372.31
2022-10-30T14:34:44.914Z,100384.66
2022-10-30T14:39:03.072Z,100377.59
2022-10-30T14:43:12.207Z,100365.28
2022-10-30T14:47:48.913Z,100370.56
2022-10-30T14:52:06.273Z,100368.78
2022-10-30T14:56:20.899Z,100360.84
2022-10-30T15:00:45.133Z,100370.56
2022-10-30T15:05:05.465Z,100360.84
2022-10-30T15:09:25.376Z,100359.06
2022-10-30T15:13:28.504Z,100361.72
2022-10-30T15:17:35.759Z,100352.00
2022-10-30T15:21:44.573Z,100348.50
2022-10-30T15:25:51.852Z,100348.50
2022-10-30T15:29:57.934Z,100345.81
2022-10-30T15:34:00.969Z,100341.41
2022-10-30T15:38:06.612Z,100338.78
2022-10-30T15:42:11.573Z,100345.81
2022-10-30T15:46:16.398Z,100344.94
2022-10-30T15:50:21.745Z,100346.72
2022-10-30T15:54:26.368Z,100343.16
2022-10-30T15:58:32.737Z,100338.75
2022-10-30T16:02:36.834Z,100346.72
2022-10-30T16:06:39.928Z,100353.75
2022-10-30T16:10:45.287Z,100347.59
2022-10-30T16:14:51.176Z,100353.78
2022-10-30T16:18:55.708Z,100355.53
2022-10-30T16:22:59.617Z,100345.81
2022-10-30T16:27:04.549Z,100347.56
2022-10-30T16:31:15.752Z,100344.03
2022-10-30T16:35:20.418Z,100346.69
2022-10-30T16:39:24.055Z,100351.97
2022-10-30T16:43:29.940Z,100348.47
2022-10-30T16:47:38.377Z,100344.94
2022-10-30T16:51:42.011Z,100353.75
2022-10-30T16:55:45.422Z,100352.00
2022-10-30T16:59:52.057Z,100364.38
2022-10-30T17:03:58.368Z,100360.84
2022-10-30T17:08:04.235Z,100366.13
2022-10-30T17:12:16.428Z,100369.66
2022-10-30T17:16:25.268Z,100373.19
2022-10-30T17:20:31.375Z,100372.31
2022-10-30T17:24:36.919Z,100372.31
2022-10-30T17:28:40.615Z,100381.13
2022-10-30T17:32:45.756Z,100372.31
2022-10-30T17:36:50.526Z,100364.38
2022-10-30T17:40:53.567Z,100371.44
2022-10-30T17:44:56.575Z,100373.19
2022-10-30T17:49:00.096Z,100376.72
2022-10-30T17:53:04.543Z,100383.78
2022-10-30T17:57:07.755Z,100389.06
2022-10-30T18:01:22.600Z,100372.31
2022-10-30T18:05:35.144Z,100381.16
2022-10-30T18:09:40.646Z,100376.72
2022-10-30T18:13:44.164Z,100386.44
2022-10-30T18:17:47.153Z,100388.22
2022-10-30T18:21:51.856Z,100374.97
2022-10-30T18:25:56.289Z,100366.13
2022-10-30T18:29:59.309Z,100369.69
2022-10-30T18:34:02.348Z,100367.03
2022-10-30T18:38:06.426Z,100368.78
2022-10-30T18:42:10.896Z,100373.19
2022-10-30T18:46:14.375Z,100367.03
2022-10-30T18:50:18.537Z,100367.00
2022-10-30T18:54:21.555Z,100366.13
2022-10-30T18:58:25.955Z,100369.66
2022-10-30T19:02:29.120Z,100368.78
2022-10-30T19:06:34.477Z,100367.91
2022-10-30T19:10:41.019Z,100372.31
2022-10-30T19:14:45.519Z,100379.38
2022-10-30T19:18:49.520Z,100381.13
2022-10-30T19:22:52.689Z,100389.94
2022-10-30T19:26:55.872Z,100380.25
2022-10-30T19:31:00.494Z,100374.97
2022-10-30T19:35:05.220Z,100369.69
2022-10-30T19:39:13.639Z,100367.91
2022-10-30T19:43:16.838Z,100374.97
2022-10-30T19:47:21.482Z,100365.25
2022-10-30T19:51:24.845Z,100366.13
2022-10-30T19:55:29.810Z,100367.00
2022-10-30T19:59:32.949Z,100357.31
2022-10-30T20:03:37.513Z,100360.84
2022-10-30T20:07:40.916Z,100364.38
2022-10-30T20:11:44.020Z,100359.09
2022-10-30T20:15:47.324Z,100370.53
2022-10-30T20:19:51.838Z,100369.69
2022-10-30T20:23:55.123Z,100371.44
2022-10-30T20:28:04.105Z,100369.69
2022-10-30T20:32:10.725Z,100367.91
2022-10-30T20:36:15.705Z,100374.09
2022-10-30T20:40:19.023Z,100367.91
2022-10-30T20:44:22.308Z,100373.19
2022-10-30T20:48:25.750Z,100373.19
2022-10-30T20:52:30.173Z,100374.97
2022-10-30T20:56:33.248Z,100378.50
2022-10-30T21:00:37.182Z,100376.72
2022-10-30T21:04:40.372Z,100367.91
2022-10-30T21:08:45.018Z,100378.50
2022-10-30T21:12:48.167Z,100382.91
2022-10-30T21:16:51.310Z,100373.19
2022-10-30T21:20:54.648Z,100374.97
2022-10-30T21:24:59.079Z,100374.97
2022-10-30T21:29:02.429Z,100374.97
2022-10-30T21:33:05.593Z,100378.50
2022-10-30T21:37:08.650Z,100378.47
2022-10-30T21:41:15.011Z,100374.97
2022-10-30T21:45:18.266Z,100380.25
2022-10-30T21:49:21.326Z,100375.84
2022-10-30T21:53:24.548Z,100369.69
2022-10-30T21:57:29.597Z,100373.19
2022-10-30T22:01:34.045Z,100367.91
2022-10-30T22:05:37.206Z,100366.16
2022-10-30T22:09:40.496Z,100365.28
2022-10-30T22:13:44.970Z,100372.31
2022-10-30T22:17:47.985Z,100370.56
2022-10-30T22:21:51.005Z,100366.16
2022-10-30T22:25:57.568Z,100364.41
2022-10-30T22:30:02.056Z,100364.41
2022-10-30T22:34:05.073Z,100367.03
2022-10-30T22:38:08.110Z,100360.88
2022-10-30T22:42:11.585Z,100367.03
2022-10-30T22:46:17.093Z,100362.59
2022-10-30T22:50:20.374Z,100367.00
2022-10-30T22:54:23.419Z,100365.25
2022-10-30T22:58:29.494Z,100370.53
2022-10-30T23:02:34.841Z,100366.13
2022-10-30T23:06:37.864Z,100359.09
2022-10-30T23:10:40.906Z,100366.13
2022-10-30T23:14:43.921Z,100359.97
2022-10-30T23:18:49.441Z,100357.31
2022-10-30T23:22:52.751Z,100358.19
2022-10-30T23:26:55.763Z,100355.56
2022-10-30T23:30:58.988Z,100353.78
2022-10-30T23:35:03.519Z,100354.66
2022-10-30T23:39:08.556Z,100353.78
2022-10-30T23:43:11.697Z,100361.72
2022-10-30T23:47:14.715Z,100355.56
2022-10-30T23:51:19.858Z,100359.97
2022-10-30T23:55:22.866Z,100367.91
2022-10-30T23:59:26.213Z,100367.00
